Caroline, Canada
Current Conditions -  °F | °C
As of 3:00 PM on Thursday 23 Oct 2014 (Local Time) from CYQF Reporting Station
Scattered Clouds Scattered Clouds  
Wind Chill: 63°   Ceiling: Unl
Heat Index: 63°   Visibility: 15mi
Dew Point: 21°   Wind: 16mph
Humidity: 20%   Direction: 270°W
Pressure: 29.5"   Gusts: 24mph
Location:  52.08°N, 114.75°W
Report Text: CYQF 232100Z 27014G21KT 15SM FEW090 SCT180 17/M06 A2950 RMK CU1AC3 CU TR SLP002 DENSITY ALT 4400FT
Loading
Personal Weather Stations






























Interactive Weather Map
Tropical Storm Tracking
New forecast layout! Learn more

10-Day Weather Forecast

Advertisements
Track Severe Weather on mobile